Andrews A F B, District of Columbia
Current Conditions -  °F | °C
As of 11:58 PM on Wednesday 26 Nov 2014 (Local Time) from KADW Reporting Station
Scattered Clouds Scattered Clouds  
Wind Chill: -1°   Ceiling: Unl
Heat Index:   Visibility: 10mi
Dew Point:   Wind: 8mph
Humidity: 87%   Direction: 290°WNW
Pressure: 29.99"   Gusts: NA
Location:  38.8022°N, 76.8857°W
Report Text: KADW 270458Z AUTO 29007KT 10SM SCT090 02/01 A2999 RMK AO2 SLP165 T00240005 400940003 $
Loading
Personal Weather Stations






























Interactive Weather Map New forecast layout! Learn more

10-Day Weather Forecast

Advertisements
Track Severe Weather on mobile